createdAt,value
2023-04-15T00:00:57.797Z,101202.66
2023-04-15T00:03:25.178Z,101197.63
2023-04-15T00:05:52.284Z,101198.72
2023-04-15T00:08:19.634Z,101200.91
2023-04-15T00:10:46.871Z,101201.44
2023-04-15T00:13:13.765Z,101204.63
2023-04-15T00:15:41.095Z,101204.09
2023-04-15T00:18:08.368Z,101204.38
2023-04-15T00:20:35.908Z,101200.94
2023-04-15T00:23:04.399Z,101197.47
2023-04-15T00:25:31.662Z,101196.69
2023-04-15T00:27:58.579Z,101196.19
2023-04-15T00:30:26.758Z,101191.41
2023-04-15T00:32:53.755Z,101194.34
2023-04-15T00:35:22.977Z,101191.69
2023-04-15T00:37:51.598Z,101199.16
2023-04-15T00:40:21.217Z,101197.84
2023-04-15T00:42:48.343Z,101197.63
2023-04-15T00:45:15.872Z,101191.78
2023-04-15T00:47:44.521Z,101205.94
2023-04-15T00:50:12.952Z,101208.59
2023-04-15T00:52:41.043Z,101210.47
2023-04-15T00:55:08.994Z,101208.06
2023-04-15T00:57:36.683Z,101216.34
2023-04-15T01:00:05.857Z,101201.16
2023-04-15T01:02:33.708Z,101213.66
2023-04-15T01:05:02.888Z,101204.09
2023-04-15T01:07:29.807Z,101207.03
2023-04-15T01:09:57.164Z,101207.03
2023-04-15T01:12:26.499Z,101207.03
2023-04-15T01:14:57.395Z,101210.22
2023-04-15T01:17:25.571Z,101206.78
2023-04-15T01:19:53.071Z,101211.56
2023-04-15T01:22:19.899Z,101213.44
2023-04-15T01:25:02.160Z,101217.97
2023-04-15T01:27:31.459Z,101211.31
2023-04-15T01:29:58.708Z,101209.44
2023-04-15T01:32:25.682Z,101223.28
2023-04-15T01:34:52.610Z,101215.84
2023-04-15T01:37:22.577Z,101222.75
2023-04-15T01:39:51.764Z,101218.25
2023-04-15T01:42:18.699Z,101221.44
2023-04-15T01:44:45.558Z,101218.50
2023-04-15T01:47:12.728Z,101216.09
2023-04-15T01:49:39.543Z,101213.47
2023-04-15T01:52:06.553Z,101213.47
2023-04-15T01:54:33.716Z,101212.91
2023-04-15T01:57:00.532Z,101214.75
2023-04-15T01:59:27.625Z,101217.19
2023-04-15T02:01:55.380Z,101210.00
2023-04-15T02:04:22.273Z,101218.75
2023-04-15T02:06:49.145Z,101214.50
2023-04-15T02:09:15.988Z,101223.81
2023-04-15T02:11:46.205Z,101224.34
2023-04-15T02:14:13.172Z,101209.47
2023-04-15T02:16:40.041Z,101212.63
2023-04-15T02:19:08.103Z,101220.91
2023-04-15T02:21:37.585Z,101225.13
2023-04-15T02:24:04.722Z,101222.19
2023-04-15T02:26:34.421Z,101222.47
2023-04-15T02:29:01.486Z,101223.25
2023-04-15T02:31:28.519Z,101228.06
2023-04-15T02:33:55.399Z,101221.66
2023-04-15T02:36:22.239Z,101230.69
2023-04-15T02:38:49.042Z,101233.34
2023-04-15T02:41:16.864Z,101235.22
2023-04-15T02:43:45.589Z,101231.75
2023-04-15T02:46:15.049Z,101236.56
2023-04-15T02:48:42.106Z,101237.34
2023-04-15T02:51:23.014Z,101237.59
2023-04-15T02:53:50.217Z,101246.88
2023-04-15T02:56:17.538Z,101238.38
2023-04-15T02:58:45.866Z,101235.19
2023-04-15T03:01:13.106Z,101239.97
2023-04-15T03:03:41.606Z,101240.16
2023-04-15T03:06:09.247Z,101232.69
2023-04-15T03:08:37.274Z,101230.84
2023-04-15T03:11:04.942Z,101235.63
2023-04-15T03:13:33.106Z,101240.13
2023-04-15T03:16:05.920Z,101240.66
2023-04-15T03:18:33.118Z,101241.69
2023-04-15T03:21:03.140Z,101239.03
2023-04-15T03:23:33.399Z,101243.03
2023-04-15T03:26:04.808Z,101238.44
2023-04-15T03:28:33.649Z,101241.66
2023-04-15T03:31:01.622Z,101236.88
2023-04-15T03:33:28.535Z,101240.81
2023-04-15T03:35:55.406Z,101241.09
2023-04-15T03:38:22.226Z,101236.53
2023-04-15T03:40:49.094Z,101248.25
2023-04-15T03:43:15.930Z,101237.06
2023-04-15T03:45:42.771Z,101244.25
2023-04-15T03:48:17.397Z,101248.44
2023-04-15T03:50:45.236Z,101237.81
2023-04-15T03:53:12.164Z,101249.81
2023-04-15T03:55:38.956Z,101252.75
2023-04-15T03:58:05.828Z,101260.44
2023-04-15T04:00:32.659Z,101258.56
2023-04-15T04:02:59.607Z,101263.56
2023-04-15T04:05:26.540Z,101261.72
2023-04-15T04:07:53.368Z,101253.31
2023-04-15T04:10:20.310Z,101246.66
2023-04-15T04:12:47.240Z,101251.19
2023-04-15T04:15:14.087Z,101248.25
2023-04-15T04:17:41.058Z,101253.03
2023-04-15T04:20:08.563Z,101245.59
2023-04-15T04:22:41.967Z,101251.97
2023-04-15T04:25:10.371Z,101254.91
2023-04-15T04:27:37.406Z,101248.00
2023-04-15T04:30:05.273Z,101244.31
2023-04-15T04:32:32.513Z,101255.19
2023-04-15T04:34:59.391Z,101251.50
2023-04-15T04:37:26.248Z,101260.25
2023-04-15T04:39:53.122Z,101265.25
2023-04-15T04:42:20.004Z,101264.50
2023-04-15T04:44:47.411Z,101262.41
2023-04-15T04:47:14.277Z,101263.75
2023-04-15T04:49:41.471Z,101260.38
2023-04-15T04:52:08.358Z,101263.81
2023-04-15T04:54:35.217Z,101260.13
2023-04-15T04:57:02.510Z,101264.69
2023-04-15T04:59:29.407Z,101263.84
2023-04-15T05:01:56.774Z,101268.94
2023-04-15T05:04:23.673Z,101273.72
2023-04-15T05:06:50.645Z,101273.22
2023-04-15T05:09:17.569Z,101272.66
2023-04-15T05:11:44.355Z,101278.00
2023-04-15T05:14:11.287Z,101275.09
2023-04-15T05:16:38.099Z,101278.53
2023-04-15T05:19:04.986Z,101291.09
2023-04-15T05:21:32.351Z,101295.06
2023-04-15T05:23:59.194Z,101297.22
2023-04-15T05:26:27.706Z,101295.94
2023-04-15T05:28:54.489Z,101299.66
2023-04-15T05:31:21.356Z,101302.59
2023-04-15T05:33:48.228Z,101311.91
2023-04-15T05:36:15.044Z,101300.72
2023-04-15T05:38:42.298Z,101311.38
2023-04-15T05:41:09.541Z,101315.34
2023-04-15T05:43:36.418Z,101316.94
2023-04-15T05:46:03.334Z,101320.41
2023-04-15T05:48:30.210Z,101319.84
2023-04-15T05:50:57.088Z,101326.47
2023-04-15T05:53:24.017Z,101328.56
2023-04-15T05:55:51.061Z,101327.50
2023-04-15T05:58:17.997Z,101338.41
2023-04-15T06:00:44.945Z,101344.75
2023-04-15T06:03:12.118Z,101349.28
2023-04-15T06:05:39.111Z,101355.63
2023-04-15T06:08:06.236Z,101350.56
2023-04-15T06:10:36.826Z,101354.00
2023-04-15T06:13:04.511Z,101351.31
2023-04-15T06:15:31.969Z,101349.13
2023-04-15T06:17:58.893Z,101351.47
2023-04-15T06:20:25.999Z,101352.97
2023-04-15T06:22:52.955Z,101369.50
2023-04-15T06:25:20.149Z,101364.94
2023-04-15T06:27:47.097Z,101370.78
2023-04-15T06:30:14.020Z,101369.91
2023-04-15T06:32:41.246Z,101366.63
2023-04-15T06:35:08.559Z,101374.06
2023-04-15T06:37:35.685Z,101367.84
2023-04-15T06:40:02.554Z,101363.53
2023-04-15T06:42:29.632Z,101365.84
2023-04-15T06:44:56.508Z,101363.41
2023-04-15T06:47:23.461Z,101374.06
2023-04-15T06:49:50.603Z,101380.00
2023-04-15T06:52:17.816Z,101374.88
2023-04-15T06:54:44.738Z,101387.47
2023-04-15T06:57:11.713Z,101384.47
2023-04-15T06:59:38.639Z,101380.16
2023-04-15T07:02:05.579Z,101387.81
2023-04-15T07:04:33.165Z,101388.56
2023-04-15T07:07:02.669Z,101384.03
2023-04-15T07:09:29.990Z,101386.03
2023-04-15T07:11:56.840Z,101380.31
2023-04-15T07:14:23.652Z,101385.22
2023-04-15T07:16:50.849Z,101381.19
2023-04-15T07:19:17.672Z,101385.41
2023-04-15T07:21:44.482Z,101396.44
2023-04-15T07:24:11.335Z,101382.81
2023-04-15T07:26:38.210Z,101381.47
2023-04-15T07:29:04.981Z,101390.50
2023-04-15T07:31:31.912Z,101395.47
2023-04-15T07:33:58.858Z,101397.41
2023-04-15T07:36:25.837Z,101398.22
2023-04-15T07:38:53.025Z,101400.28
2023-04-15T07:41:20.691Z,101398.56
2023-04-15T07:43:48.986Z,101401.84
2023-04-15T07:46:16.402Z,101398.91
2023-04-15T07:48:43.486Z,101406.41
2023-04-15T07:51:11.069Z,101402.63
2023-04-15T07:53:38.351Z,101397.38
2023-04-15T07:56:05.869Z,101402.00
2023-04-15T07:58:32.766Z,101400.97
2023-04-15T08:00:59.677Z,101404.41
2023-04-15T08:03:26.986Z,101409.97
2023-04-15T08:05:54.819Z,101409.03
2023-04-15T08:08:22.459Z,101414.31
2023-04-15T08:10:52.066Z,101405.91
2023-04-15T08:13:19.842Z,101411.13
2023-04-15T08:15:46.943Z,101411.06
2023-04-15T08:18:13.902Z,101410.47
2023-04-15T08:20:40.978Z,101419.59
2023-04-15T08:23:08.012Z,101417.28
2023-04-15T08:25:34.843Z,101418.22
2023-04-15T08:28:05.567Z,101409.78
2023-04-15T08:30:32.426Z,101423.50
2023-04-15T08:32:59.226Z,101421.25
2023-04-15T08:35:26.198Z,101415.31
2023-04-15T08:37:53.015Z,101422.84
2023-04-15T08:40:22.054Z,101418.56
2023-04-15T08:42:53.168Z,101419.78
2023-04-15T08:45:21.790Z,101431.81
2023-04-15T08:47:55.399Z,101435.81
2023-04-15T08:50:24.025Z,101431.03
2023-04-15T08:52:55.401Z,101429.66
2023-04-15T08:55:22.993Z,101433.19
2023-04-15T08:57:51.005Z,101427.47
2023-04-15T09:00:18.494Z,101441.00
2023-04-15T09:02:45.784Z,101431.88
2023-04-15T09:05:13.075Z,101433.03
2023-04-15T09:07:39.872Z,101441.13
2023-04-15T09:10:07.545Z,101449.59
2023-04-15T09:12:37.808Z,101437.94
2023-04-15T09:15:05.090Z,101449.91
2023-04-15T09:17:33.868Z,101453.66
2023-04-15T09:20:13.758Z,101452.47
2023-04-15T09:22:41.915Z,101454.28
2023-04-15T09:25:30.263Z,101457.84
2023-04-15T09:28:01.862Z,101452.53
2023-04-15T09:30:29.715Z,101464.47
2023-04-15T09:32:58.629Z,101461.53
2023-04-15T09:35:26.821Z,101467.09
2023-04-15T09:38:02.031Z,101461.78
2023-04-15T09:40:33.961Z,101469.91
2023-04-15T09:43:05.386Z,101472.75
2023-04-15T09:45:34.277Z,101471.09
2023-04-15T09:48:16.197Z,101472.44
2023-04-15T09:50:44.217Z,101476.44
2023-04-15T09:53:12.628Z,101475.06
2023-04-15T09:55:39.631Z,101476.13
2023-04-15T09:58:17.646Z,101467.28
2023-04-15T10:00:44.573Z,101471.28
2023-04-15T10:03:12.139Z,101481.38
2023-04-15T10:05:39.867Z,101481.88
2023-04-15T10:08:09.614Z,101480.66
2023-04-15T10:10:36.860Z,101479.06
2023-04-15T10:13:03.937Z,101472.75
2023-04-15T10:15:32.667Z,101472.66
2023-04-15T10:18:01.571Z,101475.34
2023-04-15T10:20:29.939Z,101481.28
2023-04-15T10:22:58.065Z,101482.81
2023-04-15T10:25:27.242Z,101489.41
2023-04-15T10:27:54.684Z,101491.22
2023-04-15T10:30:22.769Z,101492.38
2023-04-15T10:32:50.648Z,101496.94
2023-04-15T10:35:18.879Z,101492.50
2023-04-15T10:37:45.931Z,101499.47
2023-04-15T10:40:28.301Z,101497.38
2023-04-15T10:42:56.155Z,101493.97
2023-04-15T10:45:27.459Z,101498.75
2023-04-15T10:47:59.343Z,101496.44
2023-04-15T10:50:28.442Z,101493.91
2023-04-15T10:52:56.691Z,101493.09
2023-04-15T10:55:31.725Z,101502.50
2023-04-15T10:58:01.662Z,101501.34
2023-04-15T11:00:29.862Z,101501.94
2023-04-15T11:02:59.611Z,101507.28
2023-04-15T11:05:41.791Z,101504.09
2023-04-15T11:08:12.761Z,101507.84
2023-04-15T11:10:39.536Z,101512.41
2023-04-15T11:13:17.698Z,101520.28
2023-04-15T11:15:48.224Z,101518.53
2023-04-15T11:18:18.168Z,101516.03
2023-04-15T11:20:57.753Z,101515.03
2023-04-15T11:23:47.117Z,101517.41
2023-04-15T11:26:15.045Z,101529.09
2023-04-15T11:28:45.115Z,101515.81
2023-04-15T11:31:18.643Z,101525.19
2023-04-15T11:33:55.751Z,101529.19
2023-04-15T11:36:27.473Z,101533.81
2023-04-15T11:38:54.675Z,101531.59
2023-04-15T11:41:23.098Z,101532.91
2023-04-15T11:43:51.020Z,101532.34
2023-04-15T11:46:18.346Z,101531.47
2023-04-15T11:48:46.846Z,101532.59
2023-04-15T11:51:14.667Z,101538.78
2023-04-15T11:53:43.904Z,101535.28
2023-04-15T11:56:17.106Z,101547.44
2023-04-15T11:58:44.926Z,101543.22
2023-04-15T12:01:12.083Z,101539.41
2023-04-15T12:03:44.166Z,101542.38
2023-04-15T12:06:23.991Z,101543.97
2023-04-15T12:09:09.484Z,101546.81
2023-04-15T12:11:53.956Z,101548.91
2023-04-15T12:14:23.008Z,101549.38
2023-04-15T12:16:52.570Z,101549.41
2023-04-15T12:19:39.353Z,101553.53
2023-04-15T12:22:11.072Z,101556.38
2023-04-15T12:24:38.801Z,101557.91
2023-04-15T12:27:07.809Z,101558.13
2023-04-15T12:29:36.731Z,101562.44
2023-04-15T12:32:17.311Z,101572.59
2023-04-15T12:34:44.834Z,101571.19
2023-04-15T12:37:13.352Z,101576.50
2023-04-15T12:39:43.139Z,101579.22
2023-04-15T12:42:11.015Z,101591.41
2023-04-15T12:44:39.362Z,101593.88
2023-04-15T12:47:07.920Z,101597.34
2023-04-15T12:49:35.294Z,101610.22
2023-04-15T12:52:02.880Z,101605.66
2023-04-15T12:54:30.789Z,101608.06
2023-04-15T12:56:58.480Z,101609.44
2023-04-15T12:59:25.501Z,101612.41
2023-04-15T13:01:54.157Z,101617.50
2023-04-15T13:04:22.420Z,101612.47
2023-04-15T13:06:49.793Z,101604.22
2023-04-15T13:09:16.762Z,101619.97
2023-04-15T13:11:44.024Z,101607.66
2023-04-15T13:14:14.049Z,101617.56
2023-04-15T13:16:41.740Z,101624.78
2023-04-15T13:19:08.978Z,101617.38
2023-04-15T13:21:36.504Z,101620.56
2023-04-15T13:24:04.853Z,101624.31
2023-04-15T13:26:32.312Z,101628.31
2023-04-15T13:28:59.736Z,101628.50
2023-04-15T13:31:27.418Z,101629.34
2023-04-15T13:33:54.393Z,101626.63
2023-04-15T13:36:21.330Z,101631.47
2023-04-15T13:38:50.966Z,101627.13
2023-04-15T13:41:18.186Z,101632.25
2023-04-15T13:43:45.004Z,101630.41
2023-04-15T13:46:11.880Z,101637.38
2023-04-15T13:48:38.816Z,101643.75
2023-04-15T13:51:05.726Z,101630.66
2023-04-15T13:53:38.021Z,101631.97
2023-04-15T13:56:10.025Z,101639.69
2023-04-15T13:58:38.346Z,101645.50
2023-04-15T14:01:07.094Z,101638.56
2023-04-15T14:03:38.336Z,101646.25
2023-04-15T14:06:06.345Z,101648.13
2023-04-15T14:08:33.951Z,101650.00
2023-04-15T14:11:00.985Z,101658.03
2023-04-15T14:13:28.089Z,101656.22
2023-04-15T14:15:54.989Z,101658.38
2023-04-15T14:18:21.866Z,101662.91
2023-04-15T14:20:48.681Z,101669.09
2023-04-15T14:23:15.608Z,101673.41
2023-04-15T14:25:42.529Z,101664.34
2023-04-15T14:28:09.428Z,101672.38
2023-04-15T14:30:36.410Z,101676.38
2023-04-15T14:33:04.193Z,101675.59
2023-04-15T14:35:31.655Z,101678.53
2023-04-15T14:37:58.570Z,101679.38
2023-04-15T14:40:25.496Z,101678.84
2023-04-15T14:42:52.443Z,101683.63
2023-04-15T14:45:19.345Z,101690.63
2023-04-15T14:47:46.926Z,101699.13
2023-04-15T14:50:13.788Z,101692.22
2023-04-15T14:52:40.817Z,101693.81
2023-04-15T14:55:12.178Z,101694.88
2023-04-15T14:57:40.159Z,101694.63
2023-04-15T15:00:08.405Z,101694.38
2023-04-15T15:02:39.642Z,101702.34
2023-04-15T15:05:09.056Z,101702.59
2023-04-15T15:07:37.447Z,101704.22
2023-04-15T15:10:08.237Z,101714.66
2023-04-15T15:12:35.198Z,101713.84
2023-04-15T15:15:12.397Z,101717.59
2023-04-15T15:17:43.164Z,101719.97
2023-04-15T15:20:10.693Z,101725.63
2023-04-15T15:22:37.612Z,101724.53
2023-04-15T15:25:05.400Z,101725.34
2023-04-15T15:27:32.305Z,101727.22
2023-04-15T15:29:59.418Z,101736.00
2023-04-15T15:32:26.358Z,101736.03
2023-04-15T15:34:53.678Z,101738.44
2023-04-15T15:37:20.572Z,101740.06
2023-04-15T15:39:47.438Z,101745.97
2023-04-15T15:42:14.295Z,101744.63
2023-04-15T15:44:41.083Z,101748.63
2023-04-15T15:47:08.391Z,101747.53
2023-04-15T15:49:35.956Z,101749.94
2023-04-15T15:52:03.131Z,101754.19
2023-04-15T15:54:30.066Z,101744.34
2023-04-15T15:56:57.709Z,101753.66
2023-04-15T15:59:25.760Z,101760.63
2023-04-15T16:01:52.961Z,101772.13
2023-04-15T16:04:20.073Z,101771.34
2023-04-15T16:06:47.246Z,101770.84
2023-04-15T16:09:14.307Z,101774.81
2023-04-15T16:11:41.791Z,101778.84
2023-04-15T16:14:08.719Z,101785.00
2023-04-15T16:16:35.776Z,101778.00
2023-04-15T16:19:02.816Z,101782.31
2023-04-15T16:21:29.914Z,101780.44
2023-04-15T16:23:56.836Z,101792.75
2023-04-15T16:26:24.067Z,101790.59
2023-04-15T16:28:50.881Z,101785.22
2023-04-15T16:31:17.727Z,101781.75
2023-04-15T16:33:44.683Z,101788.41
2023-04-15T16:36:11.465Z,101783.59
2023-04-15T16:38:38.331Z,101787.09
2023-04-15T16:41:05.264Z,101784.66
2023-04-15T16:43:32.122Z,101787.81
2023-04-15T16:45:58.970Z,101785.94
2023-04-15T16:48:26.412Z,101795.06
2023-04-15T16:50:53.247Z,101795.31
2023-04-15T16:53:20.074Z,101793.47
2023-04-15T16:55:46.897Z,101800.41
2023-04-15T16:58:13.782Z,101802.00
2023-04-15T17:00:40.708Z,101808.75
2023-04-15T17:03:07.709Z,101810.06
2023-04-15T17:05:34.751Z,101812.22
2023-04-15T17:08:01.731Z,101816.50
2023-04-15T17:10:28.592Z,101821.59
2023-04-15T17:12:58.533Z,101822.13
2023-04-15T17:15:26.211Z,101815.69
2023-04-15T17:17:53.262Z,101824.00
2023-04-15T17:20:20.354Z,101824.50
2023-04-15T17:22:48.752Z,101819.97
2023-04-15T17:25:15.616Z,101828.78
2023-04-15T17:27:42.529Z,101833.09
2023-04-15T17:30:09.953Z,101832.03
2023-04-15T17:32:40.320Z,101838.44
2023-04-15T17:35:07.956Z,101842.19
2023-04-15T17:37:35.170Z,101852.09
2023-04-15T17:40:02.656Z,101855.56
2023-04-15T17:42:29.474Z,101849.44
2023-04-15T17:44:56.306Z,101852.66
2023-04-15T17:47:23.229Z,101861.75
2023-04-15T17:49:50.073Z,101860.69
2023-04-15T17:52:17.048Z,101859.66
2023-04-15T17:54:44.018Z,101866.59
2023-04-15T17:57:10.965Z,101868.19
2023-04-15T17:59:38.153Z,101867.66
2023-04-15T18:02:05.064Z,101875.66
2023-04-15T18:04:32.279Z,101873.84
2023-04-15T18:06:59.345Z,101872.53
2023-04-15T18:09:27.465Z,101879.72
2023-04-15T18:11:54.311Z,101887.22
2023-04-15T18:14:33.739Z,101885.59
2023-04-15T18:17:02.775Z,101891.50
2023-04-15T18:19:30.541Z,101882.38
2023-04-15T18:21:58.176Z,101886.16
2023-04-15T18:24:25.078Z,101893.63
2023-04-15T18:26:52.911Z,101904.66
2023-04-15T18:29:19.825Z,101910.53
2023-04-15T18:31:46.676Z,101906.75
2023-04-15T18:34:13.596Z,101907.34
2023-04-15T18:36:40.722Z,101918.56
2023-04-15T18:39:07.960Z,101924.72
2023-04-15T18:41:35.148Z,101931.94
2023-04-15T18:44:01.978Z,101931.94
2023-04-15T18:46:29.196Z,101942.38
2023-04-15T18:48:56.034Z,101945.03
2023-04-15T18:51:23.010Z,101940.25
2023-04-15T18:53:49.934Z,101945.31
2023-04-15T18:56:16.781Z,101940.00
2023-04-15T18:59:25.004Z,101948.03
2023-04-15T19:01:32.376Z,101960.06
2023-04-15T19:03:59.723Z,101961.41
2023-04-15T19:06:27.418Z,101954.19
2023-04-15T19:08:54.921Z,101956.59
2023-04-15T19:11:21.983Z,101960.06
2023-04-15T19:13:49.258Z,101952.59
2023-04-15T19:16:16.417Z,101960.88
2023-04-15T19:18:43.510Z,101968.91
2023-04-15T19:21:12.715Z,101974.81
2023-04-15T19:23:39.933Z,101965.97
2023-04-15T19:26:08.448Z,101964.34
2023-04-15T19:28:35.711Z,101977.47
2023-04-15T19:31:03.000Z,101978.28
2023-04-15T19:33:31.675Z,101979.59
2023-04-15T19:36:02.096Z,101987.66
2023-04-15T19:38:29.414Z,101989.50
2023-04-15T19:40:56.799Z,101991.91
2023-04-15T19:43:24.075Z,101993.03
2023-04-15T19:45:52.543Z,102005.03
2023-04-15T19:48:19.877Z,102004.25
2023-04-15T19:50:46.821Z,102002.09
2023-04-15T19:53:14.002Z,101999.13
2023-04-15T19:55:41.145Z,101997.81
2023-04-15T19:58:08.041Z,102007.97
2023-04-15T20:00:35.001Z,102001.00
2023-04-15T20:03:02.280Z,101999.94
2023-04-15T20:05:29.479Z,102002.63
2023-04-15T20:07:58.623Z,102002.63
2023-04-15T20:10:26.686Z,102007.16
2023-04-15T20:12:53.626Z,102004.50
2023-04-15T20:15:21.743Z,102014.41
2023-04-15T20:17:48.620Z,102005.81
2023-04-15T20:20:16.336Z,102013.03
2023-04-15T20:22:43.281Z,102010.91
2023-04-15T20:25:10.328Z,102020.81
2023-04-15T20:27:37.232Z,102019.22
2023-04-15T20:30:07.638Z,102026.72
2023-04-15T20:32:36.300Z,102022.19
2023-04-15T20:35:04.587Z,102021.63
2023-04-15T20:37:33.779Z,102017.63
2023-04-15T20:40:01.756Z,102026.47
2023-04-15T20:42:32.844Z,102027.53
2023-04-15T20:44:59.868Z,102021.09
2023-04-15T20:47:26.899Z,102013.91
2023-04-15T20:49:54.331Z,102016.56
2023-04-15T20:52:21.359Z,102022.72
2023-04-15T20:54:48.258Z,102030.75
2023-04-15T20:57:15.088Z,102022.44
2023-04-15T20:59:41.952Z,102022.44
2023-04-15T21:02:08.944Z,102017.38
2023-04-15T21:04:36.210Z,102026.75
2023-04-15T21:07:03.003Z,102028.09
2023-04-15T21:09:29.961Z,102030.50
2023-04-15T21:12:01.608Z,102023.28
2023-04-15T21:14:29.308Z,102020.88
2023-04-15T21:16:57.980Z,102025.16
2023-04-15T21:19:24.923Z,102029.16
2023-04-15T21:21:51.770Z,102027.81
2023-04-15T21:24:18.584Z,102033.41
2023-04-15T21:26:45.633Z,102030.19
2023-04-15T21:29:12.693Z,102038.47
2023-04-15T21:31:41.036Z,102045.41
2023-04-15T21:34:08.094Z,102033.63
2023-04-15T21:36:35.057Z,102043.81
2023-04-15T21:39:01.891Z,102049.94
2023-04-15T21:41:28.786Z,102050.97
2023-04-15T21:43:55.645Z,102061.41
2023-04-15T21:46:25.698Z,102061.63
2023-04-15T21:49:00.513Z,102070.72
2023-04-15T21:51:27.904Z,102067.78
2023-04-15T21:53:54.913Z,102069.63
2023-04-15T21:56:24.396Z,102074.13
2023-04-15T21:58:59.537Z,102077.31
2023-04-15T22:01:26.935Z,102073.28
2023-04-15T22:03:54.087Z,102068.16
2023-04-15T22:06:21.681Z,102066.84
2023-04-15T22:08:56.894Z,102068.44
2023-04-15T22:11:28.235Z,102085.53
2023-04-15T22:13:56.977Z,102093.25
2023-04-15T22:16:28.427Z,102091.41
2023-04-15T22:18:55.856Z,102096.47
2023-04-15T22:21:23.015Z,102105.50
2023-04-15T22:23:50.047Z,102098.03
2023-04-15T22:26:17.055Z,102095.56
2023-04-15T22:28:43.899Z,102107.03
2023-04-15T22:31:10.875Z,102100.13
2023-04-15T22:33:38.994Z,102091.84
2023-04-15T22:36:06.106Z,102096.41
2023-04-15T22:38:33.315Z,102096.38
2023-04-15T22:41:00.150Z,102095.84
2023-04-15T22:43:27.815Z,102095.31
2023-04-15T22:45:55.363Z,102096.88
2023-04-15T22:48:23.049Z,102094.19
2023-04-15T22:50:50.320Z,102098.72
2023-04-15T22:53:18.110Z,102104.53
2023-04-15T22:55:49.189Z,102110.63
2023-04-15T22:58:17.311Z,102107.13
2023-04-15T23:00:44.533Z,102118.59
2023-04-15T23:03:11.612Z,102114.00
2023-04-15T23:05:40.213Z,102114.47
2023-04-15T23:08:08.293Z,102125.69
2023-04-15T23:10:35.203Z,102120.69
2023-04-15T23:13:02.071Z,102119.06
2023-04-15T23:15:28.920Z,102116.41
2023-04-15T23:17:55.852Z,102126.75
2023-04-15T23:20:22.720Z,102124.06
2023-04-15T23:22:49.701Z,102127.03
2023-04-15T23:25:16.860Z,102127.53
2023-04-15T23:27:44.079Z,102117.16
2023-04-15T23:30:11.240Z,102126.22
2023-04-15T23:32:38.318Z,102119.56
2023-04-15T23:35:06.177Z,102133.16
2023-04-15T23:37:33.140Z,102133.09
2023-04-15T23:40:00.174Z,102129.84
2023-04-15T23:42:27.342Z,102129.78
2023-04-15T23:44:54.820Z,102134.03
2023-04-15T23:47:22.033Z,102133.69
2023-04-15T23:49:48.907Z,102138.97
2023-04-15T23:52:16.080Z,102138.41
2023-04-15T23:54:43.001Z,102135.66
2023-04-15T23:57:10.414Z,102138.63
2023-04-15T23:59:37.482Z,102142.84
